sensor_id;sensor_type;location;lat;lon;timestamp;P1;durP1;ratioP1;P2;durP2;ratioP2
20080;SDS011;10200;49.232;9.222;2024-03-23T00:53:41;15.23;;;8.53;;
20080;SDS011;10200;49.232;9.222;2024-03-23T00:56:07;11.83;;;7.90;;
20080;SDS011;10200;49.232;9.222;2024-03-23T00:58:32;8.80;;;5.90;;
20080;SDS011;10200;49.232;9.222;2024-03-23T01:00:58;9.90;;;7.47;;
20080;SDS011;10200;49.232;9.222;2024-03-23T01:03:23;12.70;;;7.47;;
20080;SDS011;10200;49.232;9.222;2024-03-23T01:05:49;11.03;;;7.53;;
20080;SDS011;10200;49.232;9.222;2024-03-23T01:08:15;10.70;;;7.37;;
20080;SDS011;10200;49.232;9.222;2024-03-23T01:10:40;8.53;;;7.30;;
20080;SDS011;10200;49.232;9.222;2024-03-23T01:13:06;13.37;;;7.97;;
20080;SDS011;10200;49.232;9.222;2024-03-23T01:15:31;11.13;;;7.70;;
20080;SDS011;10200;49.232;9.222;2024-03-23T01:17:57;11.07;;;7.10;;
20080;SDS011;10200;49.232;9.222;2024-03-23T01:20:22;7.57;;;6.53;;
20080;SDS011;10200;49.232;9.222;2024-03-23T01:22:48;11.63;;;7.60;;
20080;SDS011;10200;49.232;9.222;2024-03-23T01:25:14;9.27;;;7.23;;
20080;SDS011;10200;49.232;9.222;2024-03-23T01:27:39;13.07;;;8.03;;
20080;SDS011;10200;49.232;9.222;2024-03-23T01:30:05;10.93;;;6.53;;
20080;SDS011;10200;49.232;9.222;2024-03-23T01:32:32;10.57;;;6.80;;
20080;SDS011;10200;49.232;9.222;2024-03-23T01:34:57;10.23;;;8.17;;
20080;SDS011;10200;49.232;9.222;2024-03-23T01:37:23;9.93;;;7.30;;
20080;SDS011;10200;49.232;9.222;2024-03-23T01:39:50;14.57;;;8.37;;
20080;SDS011;10200;49.232;9.222;2024-03-23T01:42:16;8.80;;;7.23;;
20080;SDS011;10200;49.232;9.222;2024-03-23T01:44:41;10.37;;;7.13;;
20080;SDS011;10200;49.232;9.222;2024-03-23T01:47:07;8.40;;;6.97;;
20080;SDS011;10200;49.232;9.222;2024-03-23T01:49:33;14.17;;;7.43;;
20080;SDS011;10200;49.232;9.222;2024-03-23T01:51:58;9.50;;;7.03;;
20080;SDS011;10200;49.232;9.222;2024-03-23T01:54:25;9.00;;;6.60;;
20080;SDS011;10200;49.232;9.222;2024-03-23T01:56:50;10.23;;;7.80;;
20080;SDS011;10200;49.232;9.222;2024-03-23T01:59:16;8.73;;;6.60;;
20080;SDS011;10200;49.232;9.222;2024-03-23T02:01:42;12.17;;;7.20;;
20080;SDS011;10200;49.232;9.222;2024-03-23T02:04:07;9.90;;;7.10;;
20080;SDS011;10200;49.232;9.222;2024-03-23T02:06:34;9.10;;;6.93;;
20080;SDS011;10200;49.232;9.222;2024-03-23T02:09:00;9.33;;;6.77;;
20080;SDS011;10200;49.232;9.222;2024-03-23T02:11:26;8.97;;;7.27;;
20080;SDS011;10200;49.232;9.222;2024-03-23T02:13:51;9.73;;;7.67;;
20080;SDS011;10200;49.232;9.222;2024-03-23T02:16:17;6.77;;;5.77;;
20080;SDS011;10200;49.232;9.222;2024-03-23T02:18:42;9.23;;;6.47;;
20080;SDS011;10200;49.232;9.222;2024-03-23T02:21:08;10.20;;;6.37;;
20080;SDS011;10200;49.232;9.222;2024-03-23T02:23:34;11.07;;;7.00;;
20080;SDS011;10200;49.232;9.222;2024-03-23T02:25:59;13.30;;;7.30;;
20080;SDS011;10200;49.232;9.222;2024-03-23T02:28:25;8.47;;;6.67;;
20080;SDS011;10200;49.232;9.222;2024-03-23T02:30:51;9.93;;;6.60;;
20080;SDS011;10200;49.232;9.222;2024-03-23T02:33:17;10.37;;;7.43;;
20080;SDS011;10200;49.232;9.222;2024-03-23T02:35:45;10.33;;;7.10;;
20080;SDS011;10200;49.232;9.222;2024-03-23T02:38:12;10.67;;;7.07;;
20080;SDS011;10200;49.232;9.222;2024-03-23T02:40:37;12.33;;;7.00;;
20080;SDS011;10200;49.232;9.222;2024-03-23T02:43:03;15.50;;;7.70;;
20080;SDS011;10200;49.232;9.222;2024-03-23T02:45:29;11.93;;;6.93;;
20080;SDS011;10200;49.232;9.222;2024-03-23T02:47:55;8.90;;;5.87;;
20080;SDS011;10200;49.232;9.222;2024-03-23T02:50:22;12.97;;;7.50;;
20080;SDS011;10200;49.232;9.222;2024-03-23T02:52:47;8.77;;;6.73;;
20080;SDS011;10200;49.232;9.222;2024-03-23T02:55:14;9.80;;;6.40;;
20080;SDS011;10200;49.232;9.222;2024-03-23T02:57:39;9.80;;;6.07;;
20080;SDS011;10200;49.232;9.222;2024-03-23T03:00:05;11.57;;;6.67;;
20080;SDS011;10200;49.232;9.222;2024-03-23T03:02:32;11.20;;;6.93;;
20080;SDS011;10200;49.232;9.222;2024-03-23T03:04:58;7.83;;;5.67;;
20080;SDS011;10200;49.232;9.222;2024-03-23T03:07:23;9.90;;;6.33;;
20080;SDS011;10200;49.232;9.222;2024-03-23T03:09:49;8.93;;;5.63;;
20080;SDS011;10200;49.232;9.222;2024-03-23T03:12:14;8.03;;;6.23;;
20080;SDS011;10200;49.232;9.222;2024-03-23T03:14:40;8.97;;;5.67;;
20080;SDS011;10200;49.232;9.222;2024-03-23T03:17:06;7.83;;;4.83;;
20080;SDS011;10200;49.232;9.222;2024-03-23T03:19:31;6.10;;;5.30;;
20080;SDS011;10200;49.232;9.222;2024-03-23T03:21:57;7.43;;;4.70;;
20080;SDS011;10200;49.232;9.222;2024-03-23T03:24:23;8.47;;;5.63;;
20080;SDS011;10200;49.232;9.222;2024-03-23T03:26:48;7.57;;;5.00;;
20080;SDS011;10200;49.232;9.222;2024-03-23T03:29:15;7.63;;;5.37;;
20080;SDS011;10200;49.232;9.222;2024-03-23T03:31:40;7.10;;;5.23;;
20080;SDS011;10200;49.232;9.222;2024-03-23T03:34:06;9.13;;;5.53;;
20080;SDS011;10200;49.232;9.222;2024-03-23T03:36:32;6.43;;;5.43;;
20080;SDS011;10200;49.232;9.222;2024-03-23T03:38:58;6.10;;;4.73;;
20080;SDS011;10200;49.232;9.222;2024-03-23T03:41:23;8.33;;;5.40;;
20080;SDS011;10200;49.232;9.222;2024-03-23T03:43:49;6.63;;;4.90;;
20080;SDS011;10200;49.232;9.222;2024-03-23T03:46:14;6.90;;;4.57;;
20080;SDS011;10200;49.232;9.222;2024-03-23T03:48:40;6.87;;;4.80;;
20080;SDS011;10200;49.232;9.222;2024-03-23T03:51:06;6.00;;;4.10;;
20080;SDS011;10200;49.232;9.222;2024-03-23T03:53:31;5.53;;;4.73;;
20080;SDS011;10200;49.232;9.222;2024-03-23T03:56:00;5.70;;;3.60;;
20080;SDS011;10200;49.232;9.222;2024-03-23T03:58:27;7.23;;;4.80;;
20080;SDS011;10200;49.232;9.222;2024-03-23T04:00:52;5.80;;;4.40;;
20080;SDS011;10200;49.232;9.222;2024-03-23T04:03:18;6.00;;;4.60;;
20080;SDS011;10200;49.232;9.222;2024-03-23T04:05:49;4.80;;;3.97;;
20080;SDS011;10200;49.232;9.222;2024-03-23T04:08:19;5.53;;;4.10;;
20080;SDS011;10200;49.232;9.222;2024-03-23T04:10:45;7.07;;;4.43;;
20080;SDS011;10200;49.232;9.222;2024-03-23T04:13:11;7.40;;;5.40;;
20080;SDS011;10200;49.232;9.222;2024-03-23T04:15:37;9.37;;;5.80;;
20080;SDS011;10200;49.232;9.222;2024-03-23T04:18:03;7.77;;;5.73;;
20080;SDS011;10200;49.232;9.222;2024-03-23T04:20:29;9.23;;;5.47;;
20080;SDS011;10200;49.232;9.222;2024-03-23T04:22:54;9.33;;;5.47;;
20080;SDS011;10200;49.232;9.222;2024-03-23T04:25:20;9.70;;;6.33;;
20080;SDS011;10200;49.232;9.222;2024-03-23T04:27:45;10.67;;;6.23;;
20080;SDS011;10200;49.232;9.222;2024-03-23T04:30:11;7.63;;;5.73;;
20080;SDS011;10200;49.232;9.222;2024-03-23T04:32:37;11.50;;;6.70;;
20080;SDS011;10200;49.232;9.222;2024-03-23T04:35:03;8.13;;;6.03;;
20080;SDS011;10200;49.232;9.222;2024-03-23T04:37:35;10.20;;;6.77;;
20080;SDS011;10200;49.232;9.222;2024-03-23T04:40:01;9.53;;;6.73;;
20080;SDS011;10200;49.232;9.222;2024-03-23T04:42:28;12.30;;;7.53;;
20080;SDS011;10200;49.232;9.222;2024-03-23T04:44:54;10.27;;;7.10;;
20080;SDS011;10200;49.232;9.222;2024-03-23T04:47:19;12.37;;;7.73;;
20080;SDS011;10200;49.232;9.222;2024-03-23T04:49:45;10.57;;;7.03;;
20080;SDS011;10200;49.232;9.222;2024-03-23T04:52:11;11.83;;;7.47;;
20080;SDS011;10200;49.232;9.222;2024-03-23T04:54:37;9.47;;;6.27;;
20080;SDS011;10200;49.232;9.222;2024-03-23T04:57:03;11.50;;;7.77;;
20080;SDS011;10200;49.232;9.222;2024-03-23T04:59:30;11.70;;;7.30;;
20080;SDS011;10200;49.232;9.222;2024-03-23T05:01:55;9.00;;;7.33;;
20080;SDS011;10200;49.232;9.222;2024-03-23T05:04:21;12.07;;;7.13;;
20080;SDS011;10200;49.232;9.222;2024-03-23T05:06:46;8.87;;;6.80;;
20080;SDS011;10200;49.232;9.222;2024-03-23T05:09:12;11.13;;;7.50;;
20080;SDS011;10200;49.232;9.222;2024-03-23T05:11:38;11.87;;;8.13;;
20080;SDS011;10200;49.232;9.222;2024-03-23T05:14:04;10.57;;;7.30;;
20080;SDS011;10200;49.232;9.222;2024-03-23T05:16:29;10.57;;;7.17;;
20080;SDS011;10200;49.232;9.222;2024-03-23T05:18:55;11.30;;;7.20;;
20080;SDS011;10200;49.232;9.222;2024-03-23T05:21:21;9.93;;;6.80;;
20080;SDS011;10200;49.232;9.222;2024-03-23T05:23:46;12.03;;;7.20;;
20080;SDS011;10200;49.232;9.222;2024-03-23T05:26:12;11.00;;;6.97;;
20080;SDS011;10200;49.232;9.222;2024-03-23T05:28:38;12.90;;;8.07;;
20080;SDS011;10200;49.232;9.222;2024-03-23T05:31:04;8.93;;;6.67;;
20080;SDS011;10200;49.232;9.222;2024-03-23T05:33:30;9.97;;;7.23;;
20080;SDS011;10200;49.232;9.222;2024-03-23T05:35:56;10.77;;;7.07;;
20080;SDS011;10200;49.232;9.222;2024-03-23T05:38:22;10.47;;;6.80;;
20080;SDS011;10200;49.232;9.222;2024-03-23T05:43:21;8.63;;;5.30;;
20080;SDS011;10200;49.232;9.222;2024-03-23T05:45:53;7.63;;;5.07;;
20080;SDS011;10200;49.232;9.222;2024-03-23T05:48:19;7.57;;;5.43;;
20080;SDS011;10200;49.232;9.222;2024-03-23T05:50:44;6.53;;;5.10;;
20080;SDS011;10200;49.232;9.222;2024-03-23T05:53:10;8.70;;;5.10;;
20080;SDS011;10200;49.232;9.222;2024-03-23T05:55:37;8.43;;;4.27;;
20080;SDS011;10200;49.232;9.222;2024-03-23T05:58:03;5.17;;;4.43;;
20080;SDS011;10200;49.232;9.222;2024-03-23T06:00:29;5.37;;;4.10;;
20080;SDS011;10200;49.232;9.222;2024-03-23T06:02:54;6.30;;;4.37;;
20080;SDS011;10200;49.232;9.222;2024-03-23T06:05:20;6.10;;;3.67;;
20080;SDS011;10200;49.232;9.222;2024-03-23T06:07:45;5.90;;;3.80;;
20080;SDS011;10200;49.232;9.222;2024-03-23T06:10:11;5.30;;;3.93;;
20080;SDS011;10200;49.232;9.222;2024-03-23T06:12:37;5.33;;;3.60;;
20080;SDS011;10200;49.232;9.222;2024-03-23T06:15:02;4.80;;;3.60;;
20080;SDS011;10200;49.232;9.222;2024-03-23T06:17:28;7.67;;;3.80;;
20080;SDS011;10200;49.232;9.222;2024-03-23T06:19:54;5.03;;;3.70;;
20080;SDS011;10200;49.232;9.222;2024-03-23T06:22:19;6.67;;;3.90;;
20080;SDS011;10200;49.232;9.222;2024-03-23T06:24:45;4.67;;;3.73;;
20080;SDS011;10200;49.232;9.222;2024-03-23T06:27:11;4.87;;;3.83;;
20080;SDS011;10200;49.232;9.222;2024-03-23T06:29:37;5.80;;;3.40;;
20080;SDS011;10200;49.232;9.222;2024-03-23T06:32:02;4.17;;;3.20;;
20080;SDS011;10200;49.232;9.222;2024-03-23T06:34:28;3.53;;;2.87;;
20080;SDS011;10200;49.232;9.222;2024-03-23T06:36:54;3.10;;;2.43;;
20080;SDS011;10200;49.232;9.222;2024-03-23T06:39:20;4.13;;;2.70;;
20080;SDS011;10200;49.232;9.222;2024-03-23T06:41:51;3.30;;;2.67;;
20080;SDS011;10200;49.232;9.222;2024-03-23T06:44:17;2.20;;;1.73;;
20080;SDS011;10200;49.232;9.222;2024-03-23T06:46:44;1.73;;;1.63;;
20080;SDS011;10200;49.232;9.222;2024-03-23T06:49:10;2.43;;;1.63;;
20080;SDS011;10200;49.232;9.222;2024-03-23T06:51:36;2.10;;;1.90;;
20080;SDS011;10200;49.232;9.222;2024-03-23T06:54:05;2.50;;;1.97;;
20080;SDS011;10200;49.232;9.222;2024-03-23T06:56:31;4.27;;;1.60;;
20080;SDS011;10200;49.232;9.222;2024-03-23T06:58:57;1.40;;;1.30;;
20080;SDS011;10200;49.232;9.222;2024-03-23T07:01:24;1.60;;;1.13;;
20080;SDS011;10200;49.232;9.222;2024-03-23T07:03:50;1.17;;;1.07;;
20080;SDS011;10200;49.232;9.222;2024-03-23T07:06:16;1.50;;;1.27;;
20080;SDS011;10200;49.232;9.222;2024-03-23T07:08:41;2.30;;;1.57;;
20080;SDS011;10200;49.232;9.222;2024-03-23T07:11:07;1.73;;;1.63;;
20080;SDS011;10200;49.232;9.222;2024-03-23T07:13:32;1.60;;;1.50;;
20080;SDS011;10200;49.232;9.222;2024-03-23T07:15:58;1.83;;;1.53;;
20080;SDS011;10200;49.232;9.222;2024-03-23T07:18:24;1.30;;;1.07;;
20080;SDS011;10200;49.232;9.222;2024-03-23T07:20:54;1.80;;;1.50;;
20080;SDS011;10200;49.232;9.222;2024-03-23T07:23:21;2.53;;;1.40;;
20080;SDS011;10200;49.232;9.222;2024-03-23T07:25:57;1.80;;;1.33;;
20080;SDS011;10200;49.232;9.222;2024-03-23T07:28:22;1.30;;;1.20;;
20080;SDS011;10200;49.232;9.222;2024-03-23T07:30:48;3.33;;;1.97;;
20080;SDS011;10200;49.232;9.222;2024-03-23T07:33:23;1.60;;;1.37;;
20080;SDS011;10200;49.232;9.222;2024-03-23T07:35:49;1.73;;;1.30;;
20080;SDS011;10200;49.232;9.222;2024-03-23T07:38:14;1.27;;;1.10;;
20080;SDS011;10200;49.232;9.222;2024-03-23T07:40:40;1.20;;;1.10;;
20080;SDS011;10200;49.232;9.222;2024-03-23T07:43:05;1.77;;;1.27;;
20080;SDS011;10200;49.232;9.222;2024-03-23T07:45:31;3.03;;;1.33;;
20080;SDS011;10200;49.232;9.222;2024-03-23T07:47:56;2.03;;;1.60;;
20080;SDS011;10200;49.232;9.222;2024-03-23T07:50:22;2.10;;;1.03;;
20080;SDS011;10200;49.232;9.222;2024-03-23T07:52:48;0.90;;;0.80;;
20080;SDS011;10200;49.232;9.222;2024-03-23T07:55:13;0.70;;;0.67;;
20080;SDS011;10200;49.232;9.222;2024-03-23T07:57:39;0.70;;;0.70;;
20080;SDS011;10200;49.232;9.222;2024-03-23T08:00:05;0.53;;;0.53;;
20080;SDS011;10200;49.232;9.222;2024-03-23T08:02:31;0.40;;;0.40;;
20080;SDS011;10200;49.232;9.222;2024-03-23T08:04:57;0.67;;;0.50;;
20080;SDS011;10200;49.232;9.222;2024-03-23T08:07:22;0.50;;;0.50;;
20080;SDS011;10200;49.232;9.222;2024-03-23T08:09:48;0.50;;;0.50;;
20080;SDS011;10200;49.232;9.222;2024-03-23T08:12:13;0.50;;;0.50;;
20080;SDS011;10200;49.232;9.222;2024-03-23T08:14:39;2.00;;;0.57;;
20080;SDS011;10200;49.232;9.222;2024-03-23T08:17:04;0.30;;;0.30;;
20080;SDS011;10200;49.232;9.222;2024-03-23T08:19:30;0.40;;;0.40;;
20080;SDS011;10200;49.232;9.222;2024-03-23T08:21:56;0.57;;;0.57;;
20080;SDS011;10200;49.232;9.222;2024-03-23T08:24:21;0.83;;;0.60;;
20080;SDS011;10200;49.232;9.222;2024-03-23T08:26:47;0.90;;;0.33;;
20080;SDS011;10200;49.232;9.222;2024-03-23T08:29:13;0.47;;;0.47;;
20080;SDS011;10200;49.232;9.222;2024-03-23T08:31:38;2.93;;;0.80;;
20080;SDS011;10200;49.232;9.222;2024-03-23T08:34:04;1.23;;;0.63;;
20080;SDS011;10200;49.232;9.222;2024-03-23T08:36:29;1.47;;;0.90;;
20080;SDS011;10200;49.232;9.222;2024-03-23T08:38:55;1.37;;;0.97;;
20080;SDS011;10200;49.232;9.222;2024-03-23T08:41:21;2.03;;;1.00;;
20080;SDS011;10200;49.232;9.222;2024-03-23T08:43:46;4.73;;;1.50;;
20080;SDS011;10200;49.232;9.222;2024-03-23T08:46:13;3.10;;;1.03;;
20080;SDS011;10200;49.232;9.222;2024-03-23T08:48:41;2.17;;;1.00;;
20080;SDS011;10200;49.232;9.222;2024-03-23T08:51:11;1.07;;;0.70;;
20080;SDS011;10200;49.232;9.222;2024-03-23T08:53:38;1.43;;;0.70;;
20080;SDS011;10200;49.232;9.222;2024-03-23T08:56:05;2.83;;;1.20;;
20080;SDS011;10200;49.232;9.222;2024-03-23T08:58:32;2.00;;;1.17;;
20080;SDS011;10200;49.232;9.222;2024-03-23T09:03:40;3.23;;;1.20;;
20080;SDS011;10200;49.232;9.222;2024-03-23T09:06:09;1.00;;;0.90;;
20080;SDS011;10200;49.232;9.222;2024-03-23T09:08:35;2.47;;;1.10;;
20080;SDS011;10200;49.232;9.222;2024-03-23T09:11:08;3.60;;;1.20;;
20080;SDS011;10200;49.232;9.222;2024-03-23T09:13:38;3.40;;;1.37;;
20080;SDS011;10200;49.232;9.222;2024-03-23T09:16:04;4.27;;;1.50;;
20080;SDS011;10200;49.232;9.222;2024-03-23T09:18:34;3.90;;;1.60;;
20080;SDS011;10200;49.232;9.222;2024-03-23T09:21:01;1.70;;;1.07;;
20080;SDS011;10200;49.232;9.222;2024-03-23T09:23:27;4.70;;;1.30;;
20080;SDS011;10200;49.232;9.222;2024-03-23T09:25:53;3.93;;;1.57;;
20080;SDS011;10200;49.232;9.222;2024-03-23T09:28:19;3.03;;;1.77;;
20080;SDS011;10200;49.232;9.222;2024-03-23T09:30:44;4.30;;;1.60;;
20080;SDS011;10200;49.232;9.222;2024-03-23T09:33:10;3.43;;;1.67;;
20080;SDS011;10200;49.232;9.222;2024-03-23T09:35:40;3.20;;;1.53;;
20080;SDS011;10200;49.232;9.222;2024-03-23T09:38:06;2.30;;;1.40;;
20080;SDS011;10200;49.232;9.222;2024-03-23T09:40:33;3.10;;;1.40;;
20080;SDS011;10200;49.232;9.222;2024-03-23T09:43:00;4.30;;;2.13;;
20080;SDS011;10200;49.232;9.222;2024-03-23T09:45:29;3.27;;;1.83;;
20080;SDS011;10200;49.232;9.222;2024-03-23T09:47:55;3.53;;;1.80;;
20080;SDS011;10200;49.232;9.222;2024-03-23T09:50:21;6.57;;;2.13;;
20080;SDS011;10200;49.232;9.222;2024-03-23T09:52:47;5.60;;;1.70;;
20080;SDS011;10200;49.232;9.222;2024-03-23T09:55:13;6.63;;;1.80;;
20080;SDS011;10200;49.232;9.222;2024-03-23T09:57:39;7.73;;;2.13;;
20080;SDS011;10200;49.232;9.222;2024-03-23T10:00:08;2.83;;;1.57;;
20080;SDS011;10200;49.232;9.222;2024-03-23T10:02:34;3.60;;;1.70;;
20080;SDS011;10200;49.232;9.222;2024-03-23T10:05:00;4.50;;;1.87;;
20080;SDS011;10200;49.232;9.222;2024-03-23T10:07:26;4.57;;;1.80;;
20080;SDS011;10200;49.232;9.222;2024-03-23T10:09:55;7.00;;;1.87;;
20080;SDS011;10200;49.232;9.222;2024-03-23T10:12:21;4.13;;;1.90;;
20080;SDS011;10200;49.232;9.222;2024-03-23T10:14:48;4.60;;;1.93;;
20080;SDS011;10200;49.232;9.222;2024-03-23T10:19:48;4.40;;;2.00;;
20080;SDS011;10200;49.232;9.222;2024-03-23T10:22:17;5.33;;;1.90;;
20080;SDS011;10200;49.232;9.222;2024-03-23T10:24:43;3.53;;;1.80;;
20080;SDS011;10200;49.232;9.222;2024-03-23T10:27:08;5.63;;;1.90;;
20080;SDS011;10200;49.232;9.222;2024-03-23T10:29:34;5.97;;;1.93;;
20080;SDS011;10200;49.232;9.222;2024-03-23T10:32:09;2.93;;;1.53;;
20080;SDS011;10200;49.232;9.222;2024-03-23T10:34:36;7.17;;;2.43;;
20080;SDS011;10200;49.232;9.222;2024-03-23T10:37:03;6.23;;;2.20;;
20080;SDS011;10200;49.232;9.222;2024-03-23T10:39:30;5.20;;;2.10;;
20080;SDS011;10200;49.232;9.222;2024-03-23T10:42:06;5.53;;;2.07;;
20080;SDS011;10200;49.232;9.222;2024-03-23T10:44:33;4.57;;;1.67;;
20080;SDS011;10200;49.232;9.222;2024-03-23T10:47:02;6.90;;;2.17;;
20080;SDS011;10200;49.232;9.222;2024-03-23T10:49:30;4.40;;;1.70;;
20080;SDS011;10200;49.232;9.222;2024-03-23T10:51:57;3.83;;;2.10;;
20080;SDS011;10200;49.232;9.222;2024-03-23T10:54:24;5.10;;;2.23;;
20080;SDS011;10200;49.232;9.222;2024-03-23T10:56:52;6.53;;;2.03;;
20080;SDS011;10200;49.232;9.222;2024-03-23T10:59:25;4.17;;;1.80;;
20080;SDS011;10200;49.232;9.222;2024-03-23T11:01:55;4.17;;;1.67;;
20080;SDS011;10200;49.232;9.222;2024-03-23T11:07:00;5.13;;;2.77;;
20080;SDS011;10200;49.232;9.222;2024-03-23T11:09:40;5.17;;;1.73;;
20080;SDS011;10200;49.232;9.222;2024-03-23T11:12:17;4.67;;;1.90;;
20080;SDS011;10200;49.232;9.222;2024-03-23T11:14:43;4.87;;;1.70;;
20080;SDS011;10200;49.232;9.222;2024-03-23T11:17:09;10.17;;;2.73;;
20080;SDS011;10200;49.232;9.222;2024-03-23T11:19:37;6.23;;;2.13;;
20080;SDS011;10200;49.232;9.222;2024-03-23T11:22:03;6.97;;;3.27;;
20080;SDS011;10200;49.232;9.222;2024-03-23T11:24:33;5.33;;;1.90;;
20080;SDS011;10200;49.232;9.222;2024-03-23T11:26:59;5.27;;;1.90;;
20080;SDS011;10200;49.232;9.222;2024-03-23T11:29:26;4.77;;;1.83;;
20080;SDS011;10200;49.232;9.222;2024-03-23T11:31:53;6.13;;;1.97;;
20080;SDS011;10200;49.232;9.222;2024-03-23T11:34:19;6.00;;;2.13;;
20080;SDS011;10200;49.232;9.222;2024-03-23T11:36:46;8.00;;;1.77;;
20080;SDS011;10200;49.232;9.222;2024-03-23T11:39:15;9.47;;;2.33;;
20080;SDS011;10200;49.232;9.222;2024-03-23T11:41:48;7.17;;;2.20;;
20080;SDS011;10200;49.232;9.222;2024-03-23T11:44:19;7.57;;;2.20;;
20080;SDS011;10200;49.232;9.222;2024-03-23T11:46:47;8.57;;;2.40;;
20080;SDS011;10200;49.232;9.222;2024-03-23T11:49:48;5.17;;;1.70;;
20080;SDS011;10200;49.232;9.222;2024-03-23T11:52:07;7.33;;;2.37;;
20080;SDS011;10200;49.232;9.222;2024-03-23T11:54:33;6.87;;;2.20;;
20080;SDS011;10200;49.232;9.222;2024-03-23T11:57:02;7.77;;;2.40;;
20080;SDS011;10200;49.232;9.222;2024-03-23T11:59:36;8.43;;;2.60;;
20080;SDS011;10200;49.232;9.222;2024-03-23T12:02:09;7.63;;;2.80;;
20080;SDS011;10200;49.232;9.222;2024-03-23T12:04:37;6.13;;;1.93;;
20080;SDS011;10200;49.232;9.222;2024-03-23T12:09:45;9.73;;;3.13;;
20080;SDS011;10200;49.232;9.222;2024-03-23T12:12:15;6.00;;;2.10;;
20080;SDS011;10200;49.232;9.222;2024-03-23T12:14:45;9.77;;;2.63;;
20080;SDS011;10200;49.232;9.222;2024-03-23T12:17:26;6.07;;;2.77;;
20080;SDS011;10200;49.232;9.222;2024-03-23T12:19:51;8.27;;;2.03;;
20080;SDS011;10200;49.232;9.222;2024-03-23T12:22:21;7.30;;;2.17;;
20080;SDS011;10200;49.232;9.222;2024-03-23T12:24:47;6.07;;;2.20;;
20080;SDS011;10200;49.232;9.222;2024-03-23T12:27:13;7.53;;;2.20;;
20080;SDS011;10200;49.232;9.222;2024-03-23T12:29:40;5.70;;;2.30;;
20080;SDS011;10200;49.232;9.222;2024-03-23T12:32:06;6.83;;;2.50;;
20080;SDS011;10200;49.232;9.222;2024-03-23T12:34:32;3.53;;;2.30;;
20080;SDS011;10200;49.232;9.222;2024-03-23T12:36:58;3.17;;;1.87;;
20080;SDS011;10200;49.232;9.222;2024-03-23T12:39:24;6.13;;;2.20;;
20080;SDS011;10200;49.232;9.222;2024-03-23T12:41:49;2.83;;;1.80;;
20080;SDS011;10200;49.232;9.222;2024-03-23T12:44:16;4.13;;;1.97;;
20080;SDS011;10200;49.232;9.222;2024-03-23T12:46:42;2.93;;;1.33;;
20080;SDS011;10200;49.232;9.222;2024-03-23T12:49:08;5.73;;;1.53;;
20080;SDS011;10200;49.232;9.222;2024-03-23T12:51:33;7.07;;;1.93;;
20080;SDS011;10200;49.232;9.222;2024-03-23T12:53:59;8.17;;;2.20;;
20080;SDS011;10200;49.232;9.222;2024-03-23T12:56:25;2.70;;;1.20;;
20080;SDS011;10200;49.232;9.222;2024-03-23T12:58:53;4.10;;;1.30;;
20080;SDS011;10200;49.232;9.222;2024-03-23T13:01:20;5.60;;;1.10;;
20080;SDS011;10200;49.232;9.222;2024-03-23T13:03:46;3.37;;;1.47;;
20080;SDS011;10200;49.232;9.222;2024-03-23T13:06:12;3.60;;;1.50;;
20080;SDS011;10200;49.232;9.222;2024-03-23T13:08:38;5.20;;;1.23;;
20080;SDS011;10200;49.232;9.222;2024-03-23T13:11:05;6.83;;;1.43;;
20080;SDS011;10200;49.232;9.222;2024-03-23T13:13:31;4.37;;;1.80;;
20080;SDS011;10200;49.232;9.222;2024-03-23T13:15:58;4.43;;;1.43;;
20080;SDS011;10200;49.232;9.222;2024-03-23T13:18:23;5.40;;;1.63;;
20080;SDS011;10200;49.232;9.222;2024-03-23T13:20:49;2.30;;;1.30;;
20080;SDS011;10200;49.232;9.222;2024-03-23T13:23:15;3.73;;;1.37;;
20080;SDS011;10200;49.232;9.222;2024-03-23T13:25:40;3.80;;;1.50;;
20080;SDS011;10200;49.232;9.222;2024-03-23T13:28:06;3.37;;;1.63;;
20080;SDS011;10200;49.232;9.222;2024-03-23T13:30:32;5.00;;;1.70;;
20080;SDS011;10200;49.232;9.222;2024-03-23T13:32:58;4.80;;;1.97;;
20080;SDS011;10200;49.232;9.222;2024-03-23T13:35:24;4.47;;;1.83;;
20080;SDS011;10200;49.232;9.222;2024-03-23T13:37:50;3.10;;;2.07;;
20080;SDS011;10200;49.232;9.222;2024-03-23T13:40:15;4.40;;;1.90;;
20080;SDS011;10200;49.232;9.222;2024-03-23T13:42:41;1.77;;;1.30;;
20080;SDS011;10200;49.232;9.222;2024-03-23T13:45:07;3.43;;;1.50;;
20080;SDS011;10200;49.232;9.222;2024-03-23T13:47:32;5.60;;;2.07;;
20080;SDS011;10200;49.232;9.222;2024-03-23T13:49:58;3.67;;;2.03;;
20080;SDS011;10200;49.232;9.222;2024-03-23T13:52:24;3.00;;;1.53;;
20080;SDS011;10200;49.232;9.222;2024-03-23T13:54:51;6.47;;;1.53;;
20080;SDS011;10200;49.232;9.222;2024-03-23T13:57:17;4.50;;;2.10;;
20080;SDS011;10200;49.232;9.222;2024-03-23T13:59:46;5.97;;;2.20;;
20080;SDS011;10200;49.232;9.222;2024-03-23T14:02:12;5.97;;;1.80;;
20080;SDS011;10200;49.232;9.222;2024-03-23T14:04:39;3.60;;;1.17;;
20080;SDS011;10200;49.232;9.222;2024-03-23T14:07:05;3.93;;;1.27;;
20080;SDS011;10200;49.232;9.222;2024-03-23T14:09:32;7.27;;;1.20;;
20080;SDS011;10200;49.232;9.222;2024-03-23T14:11:57;1.63;;;1.03;;
20080;SDS011;10200;49.232;9.222;2024-03-23T14:14:25;2.53;;;1.33;;
20080;SDS011;10200;49.232;9.222;2024-03-23T14:16:50;4.87;;;1.33;;
20080;SDS011;10200;49.232;9.222;2024-03-23T14:19:16;3.23;;;0.83;;
20080;SDS011;10200;49.232;9.222;2024-03-23T14:21:42;3.97;;;1.43;;
20080;SDS011;10200;49.232;9.222;2024-03-23T14:24:07;3.40;;;0.90;;
20080;SDS011;10200;49.232;9.222;2024-03-23T14:26:34;3.90;;;1.07;;
20080;SDS011;10200;49.232;9.222;2024-03-23T14:29:00;4.87;;;0.80;;
20080;SDS011;10200;49.232;9.222;2024-03-23T14:31:26;3.50;;;0.83;;
20080;SDS011;10200;49.232;9.222;2024-03-23T14:33:51;3.77;;;0.80;;
20080;SDS011;10200;49.232;9.222;2024-03-23T14:36:17;1.37;;;0.63;;
20080;SDS011;10200;49.232;9.222;2024-03-23T14:38:47;1.10;;;0.80;;
20080;SDS011;10200;49.232;9.222;2024-03-23T14:41:13;2.23;;;1.10;;
20080;SDS011;10200;49.232;9.222;2024-03-23T14:43:39;0.93;;;0.80;;
20080;SDS011;10200;49.232;9.222;2024-03-23T14:46:11;1.40;;;0.73;;
20080;SDS011;10200;49.232;9.222;2024-03-23T14:48:41;2.90;;;0.80;;
20080;SDS011;10200;49.232;9.222;2024-03-23T14:51:07;2.10;;;0.73;;
20080;SDS011;10200;49.232;9.222;2024-03-23T14:53:34;2.17;;;0.73;;
20080;SDS011;10200;49.232;9.222;2024-03-23T14:56:01;0.50;;;0.50;;
20080;SDS011;10200;49.232;9.222;2024-03-23T14:58:27;0.70;;;0.60;;
20080;SDS011;10200;49.232;9.222;2024-03-23T15:00:59;1.87;;;0.83;;
20080;SDS011;10200;49.232;9.222;2024-03-23T15:03:34;4.03;;;0.90;;
20080;SDS011;10200;49.232;9.222;2024-03-23T15:06:01;4.23;;;1.30;;
20080;SDS011;10200;49.232;9.222;2024-03-23T15:08:27;2.70;;;0.83;;
20080;SDS011;10200;49.232;9.222;2024-03-23T15:10:54;1.00;;;0.70;;
20080;SDS011;10200;49.232;9.222;2024-03-23T15:13:19;1.33;;;0.73;;
20080;SDS011;10200;49.232;9.222;2024-03-23T15:15:47;2.53;;;0.70;;
20080;SDS011;10200;49.232;9.222;2024-03-23T15:18:18;2.77;;;0.57;;
20080;SDS011;10200;49.232;9.222;2024-03-23T15:20:53;5.20;;;0.80;;
20080;SDS011;10200;49.232;9.222;2024-03-23T15:23:20;1.43;;;1.00;;
20080;SDS011;10200;49.232;9.222;2024-03-23T15:25:46;2.40;;;1.40;;
20080;SDS011;10200;49.232;9.222;2024-03-23T15:28:11;2.20;;;1.53;;
20080;SDS011;10200;49.232;9.222;2024-03-23T15:30:37;3.37;;;1.23;;
20080;SDS011;10200;49.232;9.222;2024-03-23T15:33:02;5.47;;;1.30;;
20080;SDS011;10200;49.232;9.222;2024-03-23T15:35:28;2.70;;;1.00;;
20080;SDS011;10200;49.232;9.222;2024-03-23T15:37:54;1.20;;;0.67;;
20080;SDS011;10200;49.232;9.222;2024-03-23T15:40:19;2.63;;;0.97;;
20080;SDS011;10200;49.232;9.222;2024-03-23T15:42:45;3.23;;;1.20;;
20080;SDS011;10200;49.232;9.222;2024-03-23T15:45:10;3.53;;;0.90;;
20080;SDS011;10200;49.232;9.222;2024-03-23T15:47:36;0.93;;;0.50;;